Time;durP1;ratioP1;P1;durP2;ratioP2;P2;SDS_P1;SDS_P2;PMS_P1;PMS_P2;Temp;Humidity;BMP_temperature;BMP_pressure;BME280_temperature;BME280_humidity;BME280_pressure;Samples;Min_cycle;Max_cycle;Signal;HPM_P1;HPM_P2
2021/10/09 00:01:27;;;;;;;19.10;17.20;;;10.10;65.70;;;;;;5050371;28;20847;-83
2021/10/09 00:03:53;;;;;;;19.80;17.90;;;10.10;65.20;;;;;;5053025;28;20418;-83
2021/10/09 00:06:20;;;;;;;20.50;18.50;;;10.10;65.50;;;;;;5054426;28;20414;-83
2021/10/09 00:08:46;;;;;;;18.20;16.53;;;10.10;65.60;;;;;;5054541;28;20471;-81
2021/10/09 00:11:18;;;;;;;21.33;19.10;;;10.00;66.10;;;;;;5054379;28;20410;-83
2021/10/09 00:13:45;;;;;;;21.57;17.30;;;10.00;64.90;;;;;;5054102;28;20414;-83
2021/10/09 00:16:12;;;;;;;20.07;17.90;;;10.00;65.50;;;;;;5054252;28;20526;-82
2021/10/09 00:18:37;;;;;;;20.40;18.33;;;9.90;66.30;;;;;;5054421;28;20418;-83
2021/10/09 00:21:03;;;;;;;18.03;16.23;;;10.00;65.80;;;;;;5054286;28;20426;-83
2021/10/09 00:23:29;;;;;;;19.83;16.43;;;9.90;67.00;;;;;;5054395;28;20184;-83
2021/10/09 00:25:55;;;;;;;18.73;16.83;;;10.00;65.90;;;;;;5054391;28;20176;-83
2021/10/09 00:28:22;;;;;;;18.23;16.20;;;9.90;66.20;;;;;;5053873;28;20411;-82
2021/10/09 00:30:47;;;;;;;17.67;15.97;;;9.80;67.60;;;;;;5054040;28;20438;-83
2021/10/09 00:33:13;;;;;;;18.70;16.80;;;9.90;66.90;;;;;;5054080;28;20468;-83
2021/10/09 00:35:39;;;;;;;21.57;18.00;;;9.90;65.50;;;;;;5054101;28;20203;-83
2021/10/09 00:38:04;;;;;;;19.67;17.70;;;9.90;65.80;;;;;;5053808;28;20169;-82
2021/10/09 00:40:30;;;;;;;18.50;16.57;;;9.80;65.40;;;;;;5054084;28;20543;-82
2021/10/09 00:42:56;;;;;;;19.73;17.73;;;9.80;65.50;;;;;;5055035;28;20175;-83
2021/10/09 00:45:22;;;;;;;17.30;15.40;;;9.70;65.90;;;;;;5053889;28;20449;-83
2021/10/09 00:47:50;;;;;;;17.43;15.73;;;9.70;66.10;;;;;;5053594;28;20560;-83
2021/10/09 00:50:16;;;;;;;18.30;16.30;;;9.70;66.00;;;;;;5053836;28;20230;-83
2021/10/09 00:52:44;;;;;;;19.10;17.40;;;9.70;66.00;;;;;;5053495;28;20914;-83
2021/10/09 00:55:10;;;;;;;18.47;15.77;;;9.60;66.30;;;;;;5053474;28;20454;-83
2021/10/09 00:57:39;;;;;;;17.87;15.70;;;9.60;66.60;;;;;;5053252;28;20414;-83
2021/10/09 01:00:06;;;;;;;20.23;18.07;;;9.60;66.20;;;;;;5054810;28;20434;-83
2021/10/09 01:02:37;;;;;;;19.00;17.10;;;9.60;66.50;;;;;;5053421;28;20412;-83
2021/10/09 01:05:07;;;;;;;19.57;17.67;;;9.60;65.90;;;;;;5053681;28;20811;-83
2021/10/09 01:07:33;;;;;;;19.20;17.23;;;9.60;66.20;;;;;;5053054;28;20421;-83
2021/10/09 01:10:00;;;;;;;23.03;16.47;;;9.50;66.30;;;;;;5053295;28;20419;-83
2021/10/09 01:12:26;;;;;;;17.60;15.87;;;9.60;66.80;;;;;;5053391;28;20182;-82
2021/10/09 01:14:52;;;;;;;18.50;16.67;;;9.50;67.20;;;;;;5052263;28;20613;-83
2021/10/09 01:17:17;;;;;;;20.40;18.13;;;9.50;66.70;;;;;;5052897;28;20528;-82
2021/10/09 01:19:43;;;;;;;17.83;16.17;;;9.40;66.80;;;;;;5053165;28;20180;-83
2021/10/09 01:22:09;;;;;;;19.93;16.83;;;9.40;67.60;;;;;;5053173;28;20179;-83
2021/10/09 01:24:39;;;;;;;18.87;16.97;;;9.40;66.60;;;;;;5052738;28;20429;-83
2021/10/09 01:27:05;;;;;;;17.47;15.67;;;9.40;67.40;;;;;;5052968;28;20180;-83
2021/10/09 01:29:31;;;;;;;17.90;16.17;;;9.40;67.80;;;;;;5053003;28;20426;-82
2021/10/09 01:31:58;;;;;;;19.03;16.90;;;9.40;67.50;;;;;;5052805;28;20476;-83
2021/10/09 01:34:26;;;;;;;17.90;16.20;;;9.30;68.30;;;;;;5053196;28;20454;-83
2021/10/09 01:36:52;;;;;;;17.73;16.03;;;9.40;67.30;;;;;;5052641;28;20468;-83
2021/10/09 01:39:18;;;;;;;19.00;17.10;;;9.30;67.40;;;;;;5052660;28;20411;-83
2021/10/09 01:41:46;;;;;;;17.70;16.00;;;9.40;66.60;;;;;;5052849;28;20172;-83
2021/10/09 01:44:14;;;;;;;17.70;15.80;;;9.40;66.50;;;;;;5052538;28;20414;-83
2021/10/09 01:46:40;;;;;;;16.23;14.63;;;9.40;65.10;;;;;;5052712;28;20797;-82
2021/10/09 01:49:07;;;;;;;18.10;16.40;;;9.50;66.10;;;;;;5053168;28;20476;-82
2021/10/09 01:51:32;;;;;;;20.03;17.90;;;9.50;65.10;;;;;;5052689;28;20421;-82
2021/10/09 01:53:59;;;;;;;17.40;15.57;;;9.50;65.10;;;;;;5052959;28;20415;-81
2021/10/09 01:56:25;;;;;;;17.53;15.83;;;9.60;64.10;;;;;;5053240;28;20418;-82
2021/10/09 01:58:51;;;;;;;16.00;14.40;;;9.50;63.00;;;;;;5052826;28;20415;-82
2021/10/09 02:01:17;;;;;;;17.90;16.00;;;9.50;63.60;;;;;;5052935;28;20426;-82
2021/10/09 02:03:43;;;;;;;17.37;15.77;;;9.40;63.90;;;;;;5053089;28;20287;-82
2021/10/09 02:06:09;;;;;;;17.10;15.20;;;9.40;64.70;;;;;;5052042;28;20458;-82
2021/10/09 02:08:34;;;;;;;21.80;15.77;;;9.40;65.30;;;;;;5052757;28;20421;-82
2021/10/09 02:11:03;;;;;;;18.10;16.27;;;9.30;64.10;;;;;;5052258;28;20422;-82
2021/10/09 02:16:51;;;;;;;16.33;14.77;;;9.10;65.50;;;;;;5032435;28;20422;-83
2021/10/09 02:27:11;;;;;;;16.30;14.80;;;9.10;65.00;;;;;;5053393;28;20494;-82
2021/10/09 02:29:37;;;;;;;16.87;15.27;;;9.10;65.10;;;;;;5052290;28;20455;-83
2021/10/09 02:32:03;;;;;;;15.37;13.97;;;9.10;65.00;;;;;;5051821;28;20437;-83
2021/10/09 02:34:28;;;;;;;19.80;14.40;;;9.10;65.20;;;;;;5051605;28;20450;-82
2021/10/09 02:36:54;;;;;;;16.70;14.90;;;9.10;65.10;;;;;;5052043;28;20460;-82
2021/10/09 02:39:20;;;;;;;17.40;14.80;;;9.10;64.80;;;;;;5052249;28;20544;-83
2021/10/09 02:41:45;;;;;;;16.53;14.30;;;9.10;64.50;;;;;;5051191;28;20172;-83
2021/10/09 02:44:11;;;;;;;17.00;15.30;;;9.10;64.90;;;;;;5051630;28;20632;-83
2021/10/09 02:46:37;;;;;;;16.03;14.37;;;9.10;64.80;;;;;;5051712;28;20663;-82
2021/10/09 02:49:03;;;;;;;17.10;15.27;;;9.10;65.30;;;;;;5051588;28;20203;-82
2021/10/09 02:51:29;;;;;;;17.00;15.20;;;9.10;64.90;;;;;;5052963;28;20183;-81
2021/10/09 02:53:54;;;;;;;15.90;14.30;;;9.00;64.80;;;;;;5051836;28;20415;-81
2021/10/09 02:56:20;;;;;;;19.73;15.30;;;9.00;65.10;;;;;;5051356;28;20697;-82
2021/10/09 02:58:46;;;;;;;17.20;15.40;;;9.00;64.80;;;;;;5051288;28;20172;-83
2021/10/09 03:01:11;;;;;;;16.53;14.83;;;8.90;65.20;;;;;;5051797;28;20173;-83
2021/10/09 03:03:37;;;;;;;17.23;15.47;;;9.00;65.20;;;;;;5051414;28;20294;-83
2021/10/09 03:06:02;;;;;;;16.60;15.10;;;8.90;65.50;;;;;;5051393;28;20203;-83
2021/10/09 03:08:28;;;;;;;16.73;14.87;;;8.90;65.10;;;;;;5051526;28;20206;-83
2021/10/09 03:10:54;;;;;;;17.80;16.00;;;8.90;65.20;;;;;;5051327;28;20179;-83
2021/10/09 03:13:19;;;;;;;15.63;14.27;;;8.90;65.00;;;;;;5051598;28;20545;-83
2021/10/09 03:15:45;;;;;;;17.87;16.07;;;8.80;65.00;;;;;;5051171;28;20207;-83
2021/10/09 03:18:11;;;;;;;16.50;14.53;;;8.90;65.30;;;;;;5050729;28;20167;-83
2021/10/09 03:20:36;;;;;;;15.57;14.20;;;8.80;65.10;;;;;;5051520;28;20172;-83
2021/10/09 03:23:02;;;;;;;17.57;15.77;;;8.70;65.90;;;;;;5051011;28;20172;-82
2021/10/09 03:25:28;;;;;;;15.90;14.50;;;8.80;66.20;;;;;;5051190;28;20176;-83
2021/10/09 03:27:53;;;;;;;17.07;15.27;;;8.80;66.00;;;;;;5051034;28;20425;-83
2021/10/09 03:30:19;;;;;;;17.30;15.60;;;8.80;66.00;;;;;;5051512;28;20645;-82
2021/10/09 03:32:45;;;;;;;17.00;15.17;;;8.80;66.80;;;;;;5051276;28;20257;-83
2021/10/09 03:35:11;;;;;;;16.50;14.87;;;8.90;66.60;;;;;;5051419;28;20204;-82
2021/10/09 03:37:38;;;;;;;17.60;15.90;;;8.80;65.30;;;;;;5050967;28;20542;-83
2021/10/09 03:40:07;;;;;;;16.33;14.83;;;8.80;64.70;;;;;;5051161;28;20415;-83
2021/10/09 03:45:48;;;;;;;16.73;15.00;;;8.70;65.60;;;;;;5052446;28;20415;-83
2021/10/09 03:53:07;;;;;;;16.60;14.90;;;8.70;65.70;;;;;;5030813;28;20414;-83
2021/10/09 03:55:32;;;;;;;16.73;15.00;;;8.70;66.30;;;;;;5050635;28;20561;-83
2021/10/09 03:57:58;;;;;;;20.00;15.50;;;8.60;65.20;;;;;;5050858;28;20199;-83
2021/10/09 04:00:24;;;;;;;19.23;14.00;;;8.60;66.00;;;;;;5051621;28;20260;-83
2021/10/09 04:02:49;;;;;;;16.37;14.77;;;8.60;65.40;;;;;;5051167;28;20183;-83
2021/10/09 04:05:15;;;;;;;17.57;15.77;;;8.60;65.90;;;;;;5050717;28;20176;-83
2021/10/09 04:07:41;;;;;;;18.47;16.63;;;8.60;66.20;;;;;;5051033;28;20183;-83
2021/10/09 04:10:09;;;;;;;19.30;16.00;;;8.60;65.90;;;;;;5050827;28;20266;-83
2021/10/09 04:12:35;;;;;;;16.20;14.60;;;8.50;65.80;;;;;;5050764;28;20205;-83
2021/10/09 04:15:01;;;;;;;17.30;15.57;;;8.60;66.20;;;;;;5051134;28;20537;-83
2021/10/09 04:17:27;;;;;;;20.60;16.97;;;8.60;65.70;;;;;;5050859;28;20172;-82
2021/10/09 04:19:53;;;;;;;16.97;15.30;;;8.70;65.30;;;;;;5051278;28;20437;-83
2021/10/09 04:22:18;;;;;;;19.03;16.53;;;8.60;65.30;;;;;;5051124;28;20629;-83
2021/10/09 04:24:44;;;;;;;16.03;14.43;;;8.60;65.40;;;;;;5050485;28;20180;-83
2021/10/09 04:27:10;;;;;;;18.40;16.63;;;8.60;65.90;;;;;;5050394;28;20188;-83
2021/10/09 04:29:35;;;;;;;16.77;15.03;;;8.50;65.80;;;;;;5051758;28;20531;-83
2021/10/09 04:32:01;;;;;;;19.50;17.40;;;8.50;65.80;;;;;;5050200;28;20497;-82
2021/10/09 04:34:27;;;;;;;17.40;14.20;;;8.50;65.80;;;;;;5050338;28;20528;-83
2021/10/09 04:36:55;;;;;;;18.23;16.33;;;8.50;66.30;;;;;;5050423;28;20178;-83
2021/10/09 04:39:22;;;;;;;19.20;17.27;;;8.50;65.80;;;;;;5050465;28;20945;-83
2021/10/09 04:41:48;;;;;;;17.30;15.60;;;8.50;66.40;;;;;;5050784;28;20476;-82
2021/10/09 04:44:13;;;;;;;19.37;17.33;;;8.50;66.50;;;;;;5050483;28;20501;-83
2021/10/09 04:46:39;;;;;;;17.43;15.77;;;8.50;67.00;;;;;;5050402;28;20449;-83
2021/10/09 04:49:05;;;;;;;17.33;15.60;;;8.40;65.90;;;;;;5050405;28;20176;-82
2021/10/09 04:51:31;;;;;;;19.50;17.50;;;8.40;66.60;;;;;;5053017;28;20176;-83
2021/10/09 04:53:56;;;;;;;18.33;16.43;;;8.40;66.70;;;;;;5055073;28;20164;-83
2021/10/09 04:56:22;;;;;;;19.80;17.87;;;8.30;67.50;;;;;;5054064;28;20195;-82
2021/10/09 04:58:47;;;;;;;17.60;15.83;;;8.40;67.50;;;;;;5054232;28;20640;-82
2021/10/09 05:01:13;;;;;;;19.30;17.20;;;8.40;67.70;;;;;;5053947;28;20651;-83
2021/10/09 05:03:39;;;;;;;18.13;16.43;;;8.40;68.10;;;;;;5053695;28;20176;-83
2021/10/09 05:06:04;;;;;;;18.73;16.87;;;8.30;68.80;;;;;;5054431;28;20211;-83
2021/10/09 05:08:31;;;;;;;20.60;16.73;;;8.40;68.10;;;;;;5053712;28;20207;-83
2021/10/09 05:10:58;;;;;;;18.90;17.00;;;8.40;68.20;;;;;;5053924;28;20184;-83
2021/10/09 05:13:23;;;;;;;18.73;16.83;;;8.40;67.30;;;;;;5053750;28;20422;-82
2021/10/09 05:15:49;;;;;;;17.80;15.93;;;8.40;67.60;;;;;;5053824;28;20508;-82
2021/10/09 05:18:14;;;;;;;19.60;17.50;;;8.40;66.70;;;;;;5053270;28;20176;-82
2021/10/09 05:20:40;;;;;;;18.63;16.63;;;8.40;67.60;;;;;;5055411;28;20172;-83
2021/10/09 05:23:06;;;;;;;17.67;15.87;;;8.40;67.70;;;;;;5054048;28;20641;-80
2021/10/09 05:25:33;;;;;;;19.50;17.40;;;8.30;67.30;;;;;;5053668;28;20846;-82
2021/10/09 05:28:05;;;;;;;18.60;15.37;;;8.40;67.60;;;;;;5053462;28;20937;-81
2021/10/09 05:30:32;;;;;;;16.53;15.10;;;8.30;67.20;;;;;;5053198;28;20438;-83
2021/10/09 05:35:56;;;;;;;17.20;15.43;;;8.30;66.80;;;;;;5031072;28;20468;-82
2021/10/09 05:38:22;;;;;;;17.20;15.57;;;8.20;68.30;;;;;;5052661;28;20502;-82
2021/10/09 05:40:48;;;;;;;18.07;16.07;;;8.30;68.00;;;;;;5053507;28;20414;-82
2021/10/09 05:43:15;;;;;;;19.07;16.20;;;8.20;67.30;;;;;;5052995;28;20415;-82
2021/10/09 05:45:41;;;;;;;18.87;17.00;;;8.20;67.30;;;;;;5053783;28;20187;-82
2021/10/09 05:48:07;;;;;;;27.77;24.87;;;8.30;67.00;;;;;;5053820;28;20415;-82
2021/10/09 05:51:07;;;;;;;21.77;19.67;;;8.20;66.90;;;;;;5054082;28;20667;-82
2021/10/09 06:01:41;;;;;;;17.43;15.30;;;8.20;68.60;;;;;;5054469;28;20414;-84
2021/10/09 07:00:49;;;;;;;20.00;17.60;;;8.90;65.40;;;;;;5053623;28;20413;-84
2021/10/09 07:03:21;;;;;;;20.40;18.30;;;8.90;64.30;;;;;;5052025;28;20922;-83
2021/10/09 07:05:47;;;;;;;19.13;17.13;;;8.90;65.40;;;;;;5051855;28;20582;-83
2021/10/09 07:08:12;;;;;;;18.60;16.33;;;8.90;64.80;;;;;;5051815;28;20406;-84
2021/10/09 07:10:41;;;;;;;18.17;16.23;;;8.90;64.80;;;;;;5052225;28;20430;-85
2021/10/09 07:13:08;;;;;;;18.33;16.20;;;9.00;65.00;;;;;;5051592;28;20203;-84
2021/10/09 07:15:35;;;;;;;18.00;16.10;;;8.90;65.00;;;;;;5051530;28;20516;-84
2021/10/09 07:18:02;;;;;;;21.27;17.10;;;9.00;64.80;;;;;;5051516;28;20923;-84
2021/10/09 07:20:28;;;;;;;20.67;15.53;;;9.10;64.50;;;;;;5051096;28;20759;-85
2021/10/09 07:22:54;;;;;;;18.90;17.20;;;9.10;64.70;;;;;;5051037;28;20479;-84
2021/10/09 07:25:20;;;;;;;19.57;17.23;;;9.20;64.80;;;;;;5051640;28;20479;-84
2021/10/09 07:27:46;;;;;;;19.07;16.97;;;9.20;64.50;;;;;;5052053;28;20303;-84
2021/10/09 07:30:12;;;;;;;21.10;18.90;;;9.30;63.80;;;;;;5050861;28;20908;-85
2021/10/09 07:32:38;;;;;;;20.07;18.07;;;9.30;64.10;;;;;;5051219;28;20429;-84
2021/10/09 07:35:04;;;;;;;17.10;14.70;;;9.40;64.10;;;;;;5050623;28;20962;-84
2021/10/09 07:37:30;;;;;;;18.73;16.40;;;9.40;63.70;;;;;;5057127;28;20235;-83
2021/10/09 07:39:56;;;;;;;19.33;17.20;;;9.40;63.60;;;;;;5051253;28;20454;-84
2021/10/09 07:42:22;;;;;;;20.60;18.33;;;9.50;64.20;;;;;;5050952;28;20172;-84
2021/10/09 07:44:49;;;;;;;19.20;17.17;;;9.60;63.60;;;;;;5050994;28;20583;-84
2021/10/09 07:47:16;;;;;;;20.07;18.07;;;9.70;63.70;;;;;;5050737;28;20666;-84
2021/10/09 07:49:42;;;;;;;20.13;17.97;;;9.70;63.20;;;;;;5050809;28;20415;-84
2021/10/09 07:52:07;;;;;;;19.23;17.33;;;9.80;62.90;;;;;;5050663;28;20406;-84
2021/10/09 07:54:33;;;;;;;18.63;16.83;;;9.80;61.80;;;;;;5050900;28;20204;-84
2021/10/09 07:56:59;;;;;;;17.20;15.50;;;9.90;61.90;;;;;;5050692;28;20319;-84
2021/10/09 07:59:24;;;;;;;19.53;17.57;;;9.90;61.80;;;;;;5050768;28;20172;-84
2021/10/09 08:01:51;;;;;;;18.27;16.33;;;10.00;60.40;;;;;;5050536;28;20253;-84
2021/10/09 08:04:17;;;;;;;18.50;16.60;;;10.10;60.70;;;;;;5050733;28;20513;-84
2021/10/09 08:06:43;;;;;;;18.63;16.40;;;10.20;60.40;;;;;;5050222;28;20413;-84
2021/10/09 08:09:10;;;;;;;19.80;15.53;;;10.20;59.60;;;;;;5050683;28;20203;-84
2021/10/09 08:11:36;;;;;;;19.53;17.43;;;10.30;58.90;;;;;;5050710;28;20471;-84
2021/10/09 08:14:03;;;;;;;19.87;17.73;;;10.30;59.40;;;;;;5050625;28;20422;-84
2021/10/09 08:16:29;;;;;;;18.00;16.23;;;10.40;58.50;;;;;;5050580;28;20183;-84
2021/10/09 08:18:57;;;;;;;21.83;19.63;;;10.40;58.90;;;;;;5050499;28;20493;-85
2021/10/09 08:21:25;;;;;;;19.80;17.17;;;10.50;58.50;;;;;;5050548;28;20419;-84
2021/10/09 08:39:44;;;;;;;19.83;17.73;;;10.70;57.40;;;;;;5056150;28;20411;-86
2021/10/09 08:42:11;;;;;;;18.73;16.57;;;10.80;56.90;;;;;;5054945;28;20425;-85
2021/10/09 08:44:39;;;;;;;21.50;17.97;;;10.80;57.00;;;;;;5055764;28;20513;-85
2021/10/09 08:47:08;;;;;;;22.30;20.00;;;10.80;56.90;;;;;;5054799;28;20442;-86
2021/10/09 08:49:35;;;;;;;20.97;17.23;;;10.90;56.60;;;;;;5054691;28;20485;-85
2021/10/09 08:52:01;;;;;;;15.63;13.63;;;10.90;56.50;;;;;;5055343;28;20417;-85
2021/10/09 08:54:36;;;;;;;18.70;16.80;;;10.90;56.00;;;;;;5054077;28;20829;-85
2021/10/09 08:57:31;;;;;;;18.30;16.40;;;11.00;56.50;;;;;;5055130;28;20405;-85
2021/10/09 09:05:25;;;;;;;18.43;15.93;;;11.10;55.10;;;;;;5055390;28;20214;-85
2021/10/09 09:40:11;;;;;;;20.17;18.17;;;12.00;54.30;;;;;;5054638;28;20418;-86
2021/10/09 09:42:44;;;;;;;21.93;16.57;;;12.10;53.20;;;;;;5054756;28;20407;-86
2021/10/09 09:45:11;;;;;;;18.67;16.77;;;12.10;51.50;;;;;;5054894;28;20414;-86
2021/10/09 09:47:40;;;;;;;15.83;13.47;;;12.20;53.00;;;;;;5052818;28;20509;-86
2021/10/09 09:50:08;;;;;;;19.10;16.97;;;12.20;53.40;;;;;;5053252;28;20615;-85
2021/10/09 09:52:39;;;;;;;17.27;15.67;;;12.30;52.60;;;;;;5053390;28;20828;-86
2021/10/09 09:55:08;;;;;;;16.70;15.00;;;12.40;52.40;;;;;;5053105;28;20454;-86
2021/10/09 09:57:36;;;;;;;17.03;15.17;;;12.60;51.70;;;;;;5052888;28;20433;-86
2021/10/09 10:00:07;;;;;;;17.63;15.83;;;12.70;50.70;;;;;;5053304;28;20461;-85
2021/10/09 10:02:38;;;;;;;16.23;14.60;;;12.80;50.80;;;;;;5052944;28;20442;-85
2021/10/09 10:05:04;;;;;;;15.63;14.03;;;13.00;51.10;;;;;;5052731;28;20427;-84
2021/10/09 10:07:33;;;;;;;17.80;15.60;;;13.10;50.20;;;;;;5053550;28;20491;-85
2021/10/09 10:09:59;;;;;;;20.50;15.20;;;13.20;49.70;;;;;;5052525;28;20786;-86
2021/10/09 10:12:25;;;;;;;17.27;15.50;;;13.30;48.50;;;;;;5052415;28;20415;-86
2021/10/09 10:14:52;;;;;;;16.40;15.00;;;13.30;48.00;;;;;;5052622;28;20196;-86
2021/10/09 10:17:38;;;;;;;22.07;15.07;;;13.40;47.50;;;;;;5052632;28;20415;-86
2021/10/09 10:20:09;;;;;;;18.13;13.87;;;13.40;48.40;;;;;;5051776;28;20414;-86
2021/10/09 10:22:34;;;;;;;15.37;13.87;;;13.30;47.10;;;;;;5052564;28;20407;-86
2021/10/09 10:25:01;;;;;;;15.20;12.53;;;13.30;46.70;;;;;;5052319;28;20426;-86
2021/10/09 10:27:36;;;;;;;14.87;13.37;;;13.40;46.60;;;;;;5051872;28;20183;-86
2021/10/09 10:30:32;;;;;;;15.73;13.93;;;13.40;46.90;;;;;;5052045;28;20410;-86
2021/10/09 10:32:58;;;;;;;14.03;12.20;;;13.40;46.20;;;;;;5033948;28;20437;-86
2021/10/09 10:35:30;;;;;;;13.57;11.87;;;13.40;45.60;;;;;;5052266;28;20820;-86
2021/10/09 10:38:11;;;;;;;21.20;14.80;;;13.50;46.20;;;;;;5052393;28;20411;-85
2021/10/09 10:40:59;;;;;;;13.00;11.70;;;13.60;45.60;;;;;;5053169;28;20418;-85
2021/10/09 10:46:27;;;;;;;12.60;11.50;;;13.70;45.40;;;;;;5054047;28;20409;-85
2021/10/09 10:48:59;;;;;;;15.73;12.70;;;13.70;45.10;;;;;;5051876;28;20437;-85
2021/10/09 11:02:31;;;;;;;14.57;12.20;;;13.80;44.90;;;;;;5053851;28;20402;-85
2021/10/09 11:05:03;;;;;;;15.67;11.10;;;13.90;44.20;;;;;;5052795;28;20413;-86
2021/10/09 11:07:39;;;;;;;13.67;11.63;;;13.90;45.00;;;;;;5052023;28;20748;-86
2021/10/09 11:10:16;;;;;;;12.90;10.90;;;13.90;43.90;;;;;;5052352;28;20473;-86
2021/10/09 11:12:52;;;;;;;10.90;9.30;;;14.00;42.70;;;;;;5051997;28;20414;-86
2021/10/09 11:15:23;;;;;;;12.10;10.80;;;14.00;40.80;;;;;;5051874;28;20462;-86
2021/10/09 11:17:55;;;;;;;11.03;10.03;;;14.00;41.00;;;;;;5052177;28;20176;-85
2021/10/09 11:20:29;;;;;;;12.47;9.90;;;14.10;41.20;;;;;;5052256;28;20429;-86
2021/10/09 11:22:59;;;;;;;11.43;9.90;;;14.20;41.00;;;;;;5051875;28;20520;-86
2021/10/09 11:25:32;;;;;;;12.70;11.40;;;14.20;40.10;;;;;;5051403;28;20540;-86
2021/10/09 11:28:03;;;;;;;11.63;10.53;;;14.20;40.20;;;;;;5051998;28;20560;-86
2021/10/09 11:30:31;;;;;;;12.13;10.80;;;14.40;38.90;;;;;;5051292;28;20452;-86
2021/10/09 11:32:57;;;;;;;12.13;10.17;;;14.40;39.60;;;;;;5051302;28;20430;-84
2021/10/09 11:35:36;;;;;;;10.03;9.03;;;14.50;39.20;;;;;;5051782;28;20529;-85
2021/10/09 11:38:05;;;;;;;13.37;9.70;;;14.50;38.80;;;;;;5051899;28;20796;-85
2021/10/09 11:41:23;;;;;;;10.70;9.60;;;14.60;38.70;;;;;;5052341;28;20426;-86
2021/10/09 11:46:48;;;;;;;11.63;10.57;;;14.60;38.80;;;;;;5054218;28;20437;-86
2021/10/09 11:55:20;;;;;;;11.47;9.27;;;14.70;38.80;;;;;;5016141;28;20496;-85
2021/10/09 11:57:46;;;;;;;10.27;9.37;;;14.70;38.30;;;;;;5051026;28;20429;-86
2021/10/09 12:00:27;;;;;;;10.47;9.10;;;14.70;38.90;;;;;;5054576;28;20422;-85
2021/10/09 12:02:53;;;;;;;11.40;10.20;;;14.70;37.90;;;;;;5055618;28;20780;-85
2021/10/09 12:05:19;;;;;;;11.40;10.30;;;14.70;37.80;;;;;;5055196;28;20544;-85
2021/10/09 12:08:14;;;;;;;12.20;10.83;;;14.70;37.80;;;;;;5055891;28;20422;-85
2021/10/09 12:10:40;;;;;;;11.33;10.23;;;14.80;38.10;;;;;;5055306;28;20208;-86
2021/10/09 12:13:06;;;;;;;14.13;10.47;;;14.80;38.50;;;;;;5055423;28;20461;-85
2021/10/09 12:15:33;;;;;;;11.77;9.43;;;14.80;38.40;;;;;;5056173;28;20993;-86
2021/10/09 12:18:02;;;;;;;11.63;10.23;;;14.90;37.30;;;;;;5056114;28;20914;-86
2021/10/09 12:20:29;;;;;;;10.57;9.60;;;15.10;36.10;;;;;;5057134;28;20476;-86
2021/10/09 12:22:58;;;;;;;11.17;9.97;;;15.10;36.70;;;;;;5056599;28;20906;-86
2021/10/09 12:25:26;;;;;;;11.20;10.03;;;15.10;36.00;;;;;;5056870;28;20433;-85
2021/10/09 12:28:01;;;;;;;10.50;9.60;;;15.20;36.20;;;;;;5055572;28;20418;-82
2021/10/09 12:30:47;;;;;;;13.67;10.03;;;15.10;36.10;;;;;;5055530;28;20445;-83
2021/10/09 12:33:37;;;;;;;13.17;9.47;;;15.20;36.10;;;;;;5056180;28;20422;-81
2021/10/09 12:39:24;;;;;;;10.93;9.97;;;15.20;35.70;;;;;;5056829;28;20398;-82
2021/10/09 12:41:54;;;;;;;9.87;8.87;;;15.20;36.10;;;;;;5056494;28;20633;-82
2021/10/09 12:44:21;;;;;;;10.20;9.20;;;15.20;36.10;;;;;;5055529;28;20457;-82
2021/10/09 12:46:47;;;;;;;9.37;8.30;;;15.30;36.90;;;;;;5054094;28;20410;-82
2021/10/09 12:49:13;;;;;;;10.40;9.40;;;15.40;36.20;;;;;;5054374;28;20425;-82
2021/10/09 12:51:39;;;;;;;10.40;8.63;;;15.30;35.30;;;;;;5053837;28;20172;-81
2021/10/09 12:54:08;;;;;;;11.27;8.50;;;15.40;35.00;;;;;;5055286;28;20414;-83
2021/10/09 12:56:37;;;;;;;10.93;9.03;;;15.40;36.20;;;;;;5054337;28;20204;-81
2021/10/09 12:59:04;;;;;;;9.93;8.93;;;15.50;35.70;;;;;;5054013;28;20506;-81
2021/10/09 13:01:30;;;;;;;11.80;9.73;;;15.40;35.80;;;;;;5053882;28;20434;-82
2021/10/09 13:03:56;;;;;;;11.53;10.43;;;15.40;36.00;;;;;;5054285;28;20760;-82
2021/10/09 13:06:22;;;;;;;13.60;10.57;;;15.40;36.10;;;;;;5053915;28;20507;-82
2021/10/09 13:08:48;;;;;;;11.53;10.33;;;15.50;34.80;;;;;;5053411;28;20477;-82
2021/10/09 13:11:15;;;;;;;11.63;9.77;;;15.50;35.40;;;;;;5052858;28;20217;-81
2021/10/09 13:13:45;;;;;;;10.40;9.37;;;15.60;35.90;;;;;;5053771;28;20430;-81
2021/10/09 13:16:11;;;;;;;11.47;8.37;;;15.60;34.70;;;;;;5047483;28;20466;-81
2021/10/09 13:18:36;;;;;;;12.37;9.60;;;15.60;34.80;;;;;;5033077;28;20502;-82
2021/10/09 13:21:02;;;;;;;11.27;9.73;;;15.60;34.50;;;;;;5034221;28;20272;-81
2021/10/09 13:23:31;;;;;;;11.23;8.33;;;15.70;34.00;;;;;;5033069;28;20188;-82
2021/10/09 13:25:58;;;;;;;11.83;10.63;;;15.60;35.80;;;;;;5033101;28;20285;-82
2021/10/09 13:28:24;;;;;;;11.33;10.27;;;15.60;36.40;;;;;;5052011;28;20426;-82
2021/10/09 13:30:51;;;;;;;12.73;10.97;;;15.60;35.70;;;;;;5053710;28;20438;-81
2021/10/09 13:33:20;;;;;;;10.27;9.27;;;15.60;35.20;;;;;;5054425;28;20972;-88
2021/10/09 13:35:46;;;;;;;10.47;9.47;;;15.60;35.20;;;;;;5054192;28;20966;-85
2021/10/09 13:38:14;;;;;;;9.83;8.83;;;15.70;35.50;;;;;;5055269;28;20425;-86
2021/10/09 13:40:40;;;;;;;10.03;9.13;;;15.70;35.50;;;;;;5047956;28;20493;-85
2021/10/09 13:43:11;;;;;;;10.33;9.40;;;15.70;34.80;;;;;;5040673;28;20415;-86
2021/10/09 13:45:41;;;;;;;11.23;9.13;;;15.70;35.10;;;;;;5034445;28;20509;-85
2021/10/09 13:48:07;;;;;;;8.37;7.50;;;15.70;34.50;;;;;;5036269;28;20521;-82
2021/10/09 13:50:37;;;;;;;9.00;8.20;;;15.70;34.40;;;;;;5031477;28;21007;-82
2021/10/09 13:53:03;;;;;;;11.90;10.70;;;15.60;34.20;;;;;;5032763;28;20187;-81
2021/10/09 13:55:28;;;;;;;9.83;8.80;;;15.70;34.50;;;;;;5033297;28;20463;-81
2021/10/09 13:57:54;;;;;;;10.70;9.50;;;15.70;34.30;;;;;;5032814;28;20231;-81
2021/10/09 14:00:20;;;;;;;9.43;8.50;;;15.60;34.80;;;;;;5033712;28;20214;-82
2021/10/09 14:02:46;;;;;;;12.40;9.17;;;15.60;34.80;;;;;;5033520;28;20181;-82
2021/10/09 14:05:12;;;;;;;10.97;9.50;;;15.60;34.80;;;;;;5033567;28;20601;-82
2021/10/09 14:07:38;;;;;;;11.87;9.20;;;15.60;35.00;;;;;;5033166;28;20420;-82
2021/10/09 14:10:03;;;;;;;9.60;8.60;;;15.60;36.00;;;;;;5033083;28;20551;-82
2021/10/09 14:12:31;;;;;;;11.37;9.20;;;15.60;36.10;;;;;;5032788;28;20463;-83
2021/10/09 14:14:58;;;;;;;10.03;9.13;;;15.60;34.70;;;;;;5033097;28;20201;-82
2021/10/09 14:17:23;;;;;;;9.67;8.73;;;15.60;34.70;;;;;;5033035;28;20770;-82
2021/10/09 14:19:54;;;;;;;10.53;9.43;;;15.60;34.50;;;;;;5033345;28;20435;-83
2021/10/09 14:22:21;;;;;;;14.63;12.20;;;15.60;35.10;;;;;;5032693;28;20634;-83
2021/10/09 14:24:47;;;;;;;12.27;10.30;;;15.50;35.60;;;;;;5032506;28;20824;-82
2021/10/09 14:27:12;;;;;;;10.00;9.10;;;15.60;35.20;;;;;;5032236;28;20515;-82
2021/10/09 14:29:38;;;;;;;10.20;8.67;;;15.50;35.20;;;;;;5032594;28;20187;-82
2021/10/09 14:32:05;;;;;;;9.63;8.63;;;15.50;35.40;;;;;;5033214;28;20235;-82
2021/10/09 14:34:31;;;;;;;10.30;8.70;;;15.50;36.30;;;;;;5032358;28;20423;-82
2021/10/09 14:36:56;;;;;;;9.63;8.73;;;15.60;35.00;;;;;;5032633;28;20419;-83
2021/10/09 14:39:24;;;;;;;10.57;9.03;;;15.60;34.80;;;;;;5032539;28;20230;-82
2021/10/09 14:41:50;;;;;;;21.40;17.50;;;15.70;34.70;;;;;;5033006;28;20191;-83
2021/10/09 14:44:16;;;;;;;9.90;8.93;;;15.60;35.10;;;;;;5050934;28;20426;-83
2021/10/09 14:47:34;;;;;;;9.63;8.73;;;15.50;34.80;;;;;;5051839;28;20211;-82
2021/10/09 14:49:45;;;;;;;10.80;9.57;;;15.50;35.10;;;;;;5047873;28;20965;-82
2021/10/09 14:54:54;;;;;;;8.93;8.13;;;15.50;35.20;;;;;;5053182;28;20420;-83
2021/10/09 15:16:31;;;;;;;11.30;7.93;;;15.50;33.30;;;;;;5052793;28;20464;-82
2021/10/09 15:18:56;;;;;;;7.80;7.10;;;15.50;33.70;;;;;;5052114;28;20440;-82
2021/10/09 15:21:21;;;;;;;8.73;7.63;;;15.50;33.40;;;;;;5051144;28;20936;-81
2021/10/09 15:23:47;;;;;;;7.97;7.17;;;15.50;33.60;;;;;;5051092;28;20176;-82
2021/10/09 15:26:13;;;;;;;8.70;7.83;;;15.40;33.90;;;;;;5051225;28;20183;-82
2021/10/09 15:28:39;;;;;;;10.30;7.60;;;15.40;34.00;;;;;;5050628;28;20275;-82
2021/10/09 15:31:05;;;;;;;9.13;8.10;;;15.50;33.60;;;;;;5051137;28;20584;-82
2021/10/09 15:33:31;;;;;;;14.60;7.80;;;15.40;33.10;;;;;;5052085;28;20196;-82
2021/10/09 15:35:57;;;;;;;8.40;7.47;;;15.40;33.70;;;;;;5051408;28;20548;-82
2021/10/09 15:38:23;;;;;;;9.00;7.57;;;15.30;34.10;;;;;;5051554;28;20180;-82
2021/10/09 15:40:49;;;;;;;8.00;7.30;;;15.30;33.90;;;;;;5052013;28;20172;-82
2021/10/09 15:43:15;;;;;;;11.47;8.07;;;15.30;33.80;;;;;;5051751;28;20424;-82
2021/10/09 15:45:40;;;;;;;8.90;8.00;;;15.30;33.60;;;;;;5051522;28;20513;-82
2021/10/09 15:48:06;;;;;;;7.87;7.17;;;15.30;32.70;;;;;;5051165;28;20222;-82